sensor_id;sensor_type;location;lat;lon;timestamp;temperature;humidity
54796;DHT22;40693;43.884;20.340;2023-09-19T00:00:23;614.40;2432.00
54796;DHT22;40693;43.884;20.340;2023-09-19T00:02:58;614.40;2432.00
54796;DHT22;40693;43.884;20.340;2023-09-19T00:05:28;614.40;2432.00
54796;DHT22;40693;43.884;20.340;2023-09-19T00:07:56;614.40;2432.00
54796;DHT22;40693;43.884;20.340;2023-09-19T00:10:24;589.70;2432.00
54796;DHT22;40693;43.884;20.340;2023-09-19T00:12:53;589.70;2432.00
54796;DHT22;40693;43.884;20.340;2023-09-19T00:15:24;589.60;2432.00
54796;DHT22;40693;43.884;20.340;2023-09-19T00:17:51;589.60;2432.00
54796;DHT22;40693;43.884;20.340;2023-09-19T00:20:20;589.50;2432.00
54796;DHT22;40693;43.884;20.340;2023-09-19T00:22:49;589.30;2432.00
54796;DHT22;40693;43.884;20.340;2023-09-19T00:25:16;589.30;2432.00
54796;DHT22;40693;43.884;20.340;2023-09-19T00:27:42;589.20;2432.00
54796;DHT22;40693;43.884;20.340;2023-09-19T00:30:11;589.20;2432.00
54796;DHT22;40693;43.884;20.340;2023-09-19T00:32:50;589.30;2432.00
54796;DHT22;40693;43.884;20.340;2023-09-19T00:35:20;589.20;2432.00
54796;DHT22;40693;43.884;20.340;2023-09-19T00:37:49;589.20;2432.00
54796;DHT22;40693;43.884;20.340;2023-09-19T00:40:15;589.20;2432.00
54796;DHT22;40693;43.884;20.340;2023-09-19T00:42:45;589.20;2432.00
54796;DHT22;40693;43.884;20.340;2023-09-19T00:45:13;589.20;2432.00
54796;DHT22;40693;43.884;20.340;2023-09-19T00:47:41;589.10;2432.00
54796;DHT22;40693;43.884;20.340;2023-09-19T00:50:08;589.10;2432.00
54796;DHT22;40693;43.884;20.340;2023-09-19T00:52:36;589.00;2432.00
54796;DHT22;40693;43.884;20.340;2023-09-19T00:55:09;588.90;2432.00
54796;DHT22;40693;43.884;20.340;2023-09-19T00:57:36;589.00;2432.00
54796;DHT22;40693;43.884;20.340;2023-09-19T01:00:05;589.10;2432.00
54796;DHT22;40693;43.884;20.340;2023-09-19T01:02:32;589.10;2432.00
54796;DHT22;40693;43.884;20.340;2023-09-19T01:04:59;589.10;2432.00
54796;DHT22;40693;43.884;20.340;2023-09-19T01:07:30;589.10;2432.00
54796;DHT22;40693;43.884;20.340;2023-09-19T01:09:57;589.10;2432.00
54796;DHT22;40693;43.884;20.340;2023-09-19T01:12:39;589.20;2432.00
54796;DHT22;40693;43.884;20.340;2023-09-19T01:20:45;589.10;2432.00
54796;DHT22;40693;43.884;20.340;2023-09-19T01:31:34;589.00;2432.00
54796;DHT22;40693;43.884;20.340;2023-09-19T01:34:03;589.00;2432.00
54796;DHT22;40693;43.884;20.340;2023-09-19T01:36:35;588.90;2432.00
54796;DHT22;40693;43.884;20.340;2023-09-19T01:39:04;588.90;2432.00
54796;DHT22;40693;43.884;20.340;2023-09-19T01:47:26;589.10;2432.00
54796;DHT22;40693;43.884;20.340;2023-09-19T01:52:49;589.10;2432.00
54796;DHT22;40693;43.884;20.340;2023-09-19T01:55:20;589.20;2432.00
54796;DHT22;40693;43.884;20.340;2023-09-19T01:58:07;589.20;2432.00
54796;DHT22;40693;43.884;20.340;2023-09-19T02:00:37;589.20;2432.00
54796;DHT22;40693;43.884;20.340;2023-09-19T02:03:03;589.20;2432.00
54796;DHT22;40693;43.884;20.340;2023-09-19T02:05:29;589.20;2432.00
54796;DHT22;40693;43.884;20.340;2023-09-19T02:07:55;589.10;2432.00
54796;DHT22;40693;43.884;20.340;2023-09-19T02:10:21;588.90;2432.00
54796;DHT22;40693;43.884;20.340;2023-09-19T02:12:49;564.10;2432.00
54796;DHT22;40693;43.884;20.340;2023-09-19T02:15:15;564.00;2432.00
54796;DHT22;40693;43.884;20.340;2023-09-19T02:17:45;563.90;2432.00
54796;DHT22;40693;43.884;20.340;2023-09-19T02:20:12;563.80;2432.00
54796;DHT22;40693;43.884;20.340;2023-09-19T02:22:43;563.60;2432.00
54796;DHT22;40693;43.884;20.340;2023-09-19T02:25:10;563.70;2432.00
54796;DHT22;40693;43.884;20.340;2023-09-19T02:27:36;563.60;2432.00
54796;DHT22;40693;43.884;20.340;2023-09-19T02:30:03;563.60;2432.00
54796;DHT22;40693;43.884;20.340;2023-09-19T02:32:29;563.70;2432.00
54796;DHT22;40693;43.884;20.340;2023-09-19T02:34:57;563.80;2432.00
54796;DHT22;40693;43.884;20.340;2023-09-19T02:37:24;563.80;2432.00
54796;DHT22;40693;43.884;20.340;2023-09-19T02:39:50;563.80;2432.00
54796;DHT22;40693;43.884;20.340;2023-09-19T02:42:16;563.90;2432.00
54796;DHT22;40693;43.884;20.340;2023-09-19T02:44:41;563.90;2432.00
54796;DHT22;40693;43.884;20.340;2023-09-19T02:47:07;563.90;2432.00
54796;DHT22;40693;43.884;20.340;2023-09-19T02:49:33;563.90;2432.00
54796;DHT22;40693;43.884;20.340;2023-09-19T02:51:58;563.90;2432.00
54796;DHT22;40693;43.884;20.340;2023-09-19T02:54:25;563.80;2432.00
54796;DHT22;40693;43.884;20.340;2023-09-19T02:56:50;563.80;2432.00
54796;DHT22;40693;43.884;20.340;2023-09-19T02:59:16;563.90;2432.00
54796;DHT22;40693;43.884;20.340;2023-09-19T03:01:45;563.90;2432.00
54796;DHT22;40693;43.884;20.340;2023-09-19T03:04:13;563.80;2432.00
54796;DHT22;40693;43.884;20.340;2023-09-19T03:06:45;563.80;2432.00
54796;DHT22;40693;43.884;20.340;2023-09-19T03:09:11;563.80;2432.00
54796;DHT22;40693;43.884;20.340;2023-09-19T03:11:37;563.80;2432.00
54796;DHT22;40693;43.884;20.340;2023-09-19T03:14:05;563.70;2432.00
54796;DHT22;40693;43.884;20.340;2023-09-19T03:16:31;563.80;2432.00
54796;DHT22;40693;43.884;20.340;2023-09-19T03:18:58;563.70;2432.00
54796;DHT22;40693;43.884;20.340;2023-09-19T03:21:25;563.60;2432.00
54796;DHT22;40693;43.884;20.340;2023-09-19T03:23:51;563.60;2432.00
54796;DHT22;40693;43.884;20.340;2023-09-19T03:26:16;563.50;2432.00
54796;DHT22;40693;43.884;20.340;2023-09-19T03:28:43;563.50;2432.00
54796;DHT22;40693;43.884;20.340;2023-09-19T03:31:09;563.50;2432.00
54796;DHT22;40693;43.884;20.340;2023-09-19T03:33:35;563.50;2432.00
54796;DHT22;40693;43.884;20.340;2023-09-19T03:36:02;563.50;2432.00
54796;DHT22;40693;43.884;20.340;2023-09-19T03:38:30;563.60;2432.00
54796;DHT22;40693;43.884;20.340;2023-09-19T03:40:56;563.60;2432.00
54796;DHT22;40693;43.884;20.340;2023-09-19T03:43:22;563.60;2432.00
54796;DHT22;40693;43.884;20.340;2023-09-19T03:45:48;563.60;2432.00
54796;DHT22;40693;43.884;20.340;2023-09-19T03:48:14;563.60;2432.00
54796;DHT22;40693;43.884;20.340;2023-09-19T03:50:40;563.60;2432.00
54796;DHT22;40693;43.884;20.340;2023-09-19T03:53:06;563.70;2432.00
54796;DHT22;40693;43.884;20.340;2023-09-19T03:55:35;564.00;2432.00
54796;DHT22;40693;43.884;20.340;2023-09-19T03:58:02;563.70;2432.00
54796;DHT22;40693;43.884;20.340;2023-09-19T04:00:28;563.80;2432.00
54796;DHT22;40693;43.884;20.340;2023-09-19T04:02:55;563.80;2432.00
54796;DHT22;40693;43.884;20.340;2023-09-19T04:05:24;563.80;2432.00
54796;DHT22;40693;43.884;20.340;2023-09-19T04:07:50;563.80;2432.00
54796;DHT22;40693;43.884;20.340;2023-09-19T04:10:16;563.80;2432.00
54796;DHT22;40693;43.884;20.340;2023-09-19T04:12:53;563.80;2432.00
54796;DHT22;40693;43.884;20.340;2023-09-19T04:15:19;563.70;2432.00
54796;DHT22;40693;43.884;20.340;2023-09-19T04:17:51;563.80;2432.00
54796;DHT22;40693;43.884;20.340;2023-09-19T04:20:18;563.80;2432.00
54796;DHT22;40693;43.884;20.340;2023-09-19T04:22:53;563.80;2432.00
54796;DHT22;40693;43.884;20.340;2023-09-19T04:25:20;563.80;2432.00
54796;DHT22;40693;43.884;20.340;2023-09-19T04:27:46;563.80;2432.00
54796;DHT22;40693;43.884;20.340;2023-09-19T04:30:12;563.80;2432.00
54796;DHT22;40693;43.884;20.340;2023-09-19T04:32:38;563.80;2432.00
54796;DHT22;40693;43.884;20.340;2023-09-19T04:35:10;563.80;2432.00
54796;DHT22;40693;43.884;20.340;2023-09-19T04:37:38;563.80;2432.00
54796;DHT22;40693;43.884;20.340;2023-09-19T04:40:06;563.80;2432.00
54796;DHT22;40693;43.884;20.340;2023-09-19T04:42:40;563.80;2432.00
54796;DHT22;40693;43.884;20.340;2023-09-19T04:45:07;563.80;2432.00
54796;DHT22;40693;43.884;20.340;2023-09-19T04:47:35;563.80;2432.00
54796;DHT22;40693;43.884;20.340;2023-09-19T04:50:07;563.80;2432.00
54796;DHT22;40693;43.884;20.340;2023-09-19T04:52:33;563.90;2432.00
54796;DHT22;40693;43.884;20.340;2023-09-19T04:54:59;563.90;2432.00
54796;DHT22;40693;43.884;20.340;2023-09-19T04:57:25;563.90;2432.00
54796;DHT22;40693;43.884;20.340;2023-09-19T04:59:50;563.90;2432.00
54796;DHT22;40693;43.884;20.340;2023-09-19T05:02:16;563.80;2432.00
54796;DHT22;40693;43.884;20.340;2023-09-19T05:04:42;563.80;2432.00
54796;DHT22;40693;43.884;20.340;2023-09-19T05:07:07;563.90;2432.00
54796;DHT22;40693;43.884;20.340;2023-09-19T05:09:33;563.90;2432.00
54796;DHT22;40693;43.884;20.340;2023-09-19T05:12:00;563.90;2432.00
54796;DHT22;40693;43.884;20.340;2023-09-19T05:14:26;563.90;2432.00
54796;DHT22;40693;43.884;20.340;2023-09-19T05:16:52;563.90;2432.00
54796;DHT22;40693;43.884;20.340;2023-09-19T05:19:17;564.00;2432.00
54796;DHT22;40693;43.884;20.340;2023-09-19T05:21:43;564.00;2432.00
54796;DHT22;40693;43.884;20.340;2023-09-19T05:24:09;564.00;2432.00
54796;DHT22;40693;43.884;20.340;2023-09-19T05:26:36;564.00;2432.00
54796;DHT22;40693;43.884;20.340;2023-09-19T05:29:02;564.00;2432.00
54796;DHT22;40693;43.884;20.340;2023-09-19T05:31:29;563.90;2432.00
54796;DHT22;40693;43.884;20.340;2023-09-19T05:33:54;563.90;2432.00
54796;DHT22;40693;43.884;20.340;2023-09-19T05:36:20;563.90;2432.00
54796;DHT22;40693;43.884;20.340;2023-09-19T05:38:46;563.90;2432.00
54796;DHT22;40693;43.884;20.340;2023-09-19T05:41:15;563.90;2432.00
54796;DHT22;40693;43.884;20.340;2023-09-19T05:43:41;563.90;2432.00
54796;DHT22;40693;43.884;20.340;2023-09-19T05:46:08;563.90;2432.00
54796;DHT22;40693;43.884;20.340;2023-09-19T05:48:34;563.90;2432.00
54796;DHT22;40693;43.884;20.340;2023-09-19T05:51:00;563.90;2432.00
54796;DHT22;40693;43.884;20.340;2023-09-19T05:53:26;563.90;2432.00
54796;DHT22;40693;43.884;20.340;2023-09-19T05:55:52;563.90;2432.00
54796;DHT22;40693;43.884;20.340;2023-09-19T05:58:19;563.90;2432.00
54796;DHT22;40693;43.884;20.340;2023-09-19T06:00:45;563.90;2432.00
54796;DHT22;40693;43.884;20.340;2023-09-19T06:03:13;563.80;2432.00
54796;DHT22;40693;43.884;20.340;2023-09-19T06:05:40;563.80;2432.00
54796;DHT22;40693;43.884;20.340;2023-09-19T06:08:08;563.80;2432.00
54796;DHT22;40693;43.884;20.340;2023-09-19T06:10:35;563.80;2432.00
54796;DHT22;40693;43.884;20.340;2023-09-19T06:13:04;563.80;2432.00
54796;DHT22;40693;43.884;20.340;2023-09-19T06:15:31;563.90;2432.00
54796;DHT22;40693;43.884;20.340;2023-09-19T06:17:59;563.90;2432.00
54796;DHT22;40693;43.884;20.340;2023-09-19T06:20:26;564.00;2432.00
54796;DHT22;40693;43.884;20.340;2023-09-19T06:22:52;564.00;2432.00
54796;DHT22;40693;43.884;20.340;2023-09-19T06:25:19;564.10;2432.00
54796;DHT22;40693;43.884;20.340;2023-09-19T06:28:03;564.10;2432.00
54796;DHT22;40693;43.884;20.340;2023-09-19T06:30:31;564.10;2432.00
54796;DHT22;40693;43.884;20.340;2023-09-19T06:32:58;564.10;2432.00
54796;DHT22;40693;43.884;20.340;2023-09-19T06:35:25;564.10;2432.00
54796;DHT22;40693;43.884;20.340;2023-09-19T06:37:54;564.10;2432.00
54796;DHT22;40693;43.884;20.340;2023-09-19T06:40:23;588.80;2432.00
54796;DHT22;40693;43.884;20.340;2023-09-19T06:42:52;588.90;2432.00
54796;DHT22;40693;43.884;20.340;2023-09-19T06:45:19;589.00;2432.00
54796;DHT22;40693;43.884;20.340;2023-09-19T06:47:48;589.10;2432.00
54796;DHT22;40693;43.884;20.340;2023-09-19T06:50:21;589.20;2432.00
54796;DHT22;40693;43.884;20.340;2023-09-19T06:52:52;589.20;2432.00
54796;DHT22;40693;43.884;20.340;2023-09-19T06:55:19;589.20;2432.00
54796;DHT22;40693;43.884;20.340;2023-09-19T06:57:49;589.20;2432.00
54796;DHT22;40693;43.884;20.340;2023-09-19T07:00:15;589.30;2432.00
54796;DHT22;40693;43.884;20.340;2023-09-19T07:02:58;589.30;2432.00
54796;DHT22;40693;43.884;20.340;2023-09-19T07:05:28;589.30;2432.00
54796;DHT22;40693;43.884;20.340;2023-09-19T07:07:54;589.40;2432.00
54796;DHT22;40693;43.884;20.340;2023-09-19T07:10:21;589.50;2432.00
54796;DHT22;40693;43.884;20.340;2023-09-19T07:12:58;589.60;2432.00
54796;DHT22;40693;43.884;20.340;2023-09-19T07:15:25;589.70;2432.00
54796;DHT22;40693;43.884;20.340;2023-09-19T07:17:54;614.40;2432.00
54796;DHT22;40693;43.884;20.340;2023-09-19T07:20:22;614.40;2432.00
54796;DHT22;40693;43.884;20.340;2023-09-19T07:22:49;614.50;2432.00
54796;DHT22;40693;43.884;20.340;2023-09-19T07:25:16;614.50;2432.00
54796;DHT22;40693;43.884;20.340;2023-09-19T07:27:42;614.50;2432.00
54796;DHT22;40693;43.884;20.340;2023-09-19T07:30:09;614.60;2432.00
54796;DHT22;40693;43.884;20.340;2023-09-19T07:32:37;614.70;2432.00
54796;DHT22;40693;43.884;20.340;2023-09-19T07:35:04;614.50;2432.00
54796;DHT22;40693;43.884;20.340;2023-09-19T07:37:31;614.90;2432.00
54796;DHT22;40693;43.884;20.340;2023-09-19T07:40:05;615.00;2432.00
54796;DHT22;40693;43.884;20.340;2023-09-19T07:42:37;615.10;2432.00
54796;DHT22;40693;43.884;20.340;2023-09-19T07:45:06;615.20;2432.00
54796;DHT22;40693;43.884;20.340;2023-09-19T07:47:33;615.30;2432.00
54796;DHT22;40693;43.884;20.340;2023-09-19T07:49:59;640.00;2432.00
54796;DHT22;40693;43.884;20.340;2023-09-19T07:52:28;640.10;2432.00
54796;DHT22;40693;43.884;20.340;2023-09-19T07:54:54;640.20;2432.00
54796;DHT22;40693;43.884;20.340;2023-09-19T07:57:23;640.20;2432.00
54796;DHT22;40693;43.884;20.340;2023-09-19T07:59:48;640.30;2432.00
54796;DHT22;40693;43.884;20.340;2023-09-19T08:02:14;640.30;2432.00
54796;DHT22;40693;43.884;20.340;2023-09-19T08:04:44;640.30;2432.00
54796;DHT22;40693;43.884;20.340;2023-09-19T08:07:12;640.40;2432.00
54796;DHT22;40693;43.884;20.340;2023-09-19T08:09:38;640.50;2432.00
54796;DHT22;40693;43.884;20.340;2023-09-19T08:12:05;640.70;2432.00
54796;DHT22;40693;43.884;20.340;2023-09-19T08:14:33;640.80;2432.00
54796;DHT22;40693;43.884;20.340;2023-09-19T08:16:59;640.80;2432.00
54796;DHT22;40693;43.884;20.340;2023-09-19T08:19:26;665.60;2432.00
54796;DHT22;40693;43.884;20.340;2023-09-19T08:22:00;665.80;2432.00
54796;DHT22;40693;43.884;20.340;2023-09-19T08:24:30;665.90;2432.00
54796;DHT22;40693;43.884;20.340;2023-09-19T08:26:57;666.10;2432.00
54796;DHT22;40693;43.884;20.340;2023-09-19T08:29:24;666.20;2432.00
54796;DHT22;40693;43.884;20.340;2023-09-19T08:31:56;666.20;2432.00
54796;DHT22;40693;43.884;20.340;2023-09-19T08:34:23;666.50;2432.00
54796;DHT22;40693;43.884;20.340;2023-09-19T08:36:51;691.30;2432.00
54796;DHT22;40693;43.884;20.340;2023-09-19T08:39:18;691.40;2432.00
54796;DHT22;40693;43.884;20.340;2023-09-19T08:41:44;691.60;2380.80
54796;DHT22;40693;43.884;20.340;2023-09-19T08:44:10;691.60;2355.20
54796;DHT22;40693;43.884;20.340;2023-09-19T08:46:37;691.60;2278.40
54796;DHT22;40693;43.884;20.340;2023-09-19T08:51:56;691.80;2304.00
54796;DHT22;40693;43.884;20.340;2023-09-19T08:54:30;691.80;2252.80
54796;DHT22;40693;43.884;20.340;2023-09-19T08:57:00;691.80;2227.20
54796;DHT22;40693;43.884;20.340;2023-09-19T08:59:30;691.70;2227.20
54796;DHT22;40693;43.884;20.340;2023-09-19T09:01:57;691.50;2227.20
54796;DHT22;40693;43.884;20.340;2023-09-19T09:04:23;691.40;2227.20
54796;DHT22;40693;43.884;20.340;2023-09-19T09:06:52;691.40;2227.20
54796;DHT22;40693;43.884;20.340;2023-09-19T09:09:20;691.50;2227.20
54796;DHT22;40693;43.884;20.340;2023-09-19T09:11:48;691.60;2201.60
54796;DHT22;40693;43.884;20.340;2023-09-19T09:14:17;691.40;2227.20
54796;DHT22;40693;43.884;20.340;2023-09-19T09:16:43;691.50;2201.60
54796;DHT22;40693;43.884;20.340;2023-09-19T09:19:10;691.40;2201.60
54796;DHT22;40693;43.884;20.340;2023-09-19T09:21:38;691.50;2227.20
54796;DHT22;40693;43.884;20.340;2023-09-19T09:25:03;691.60;2252.80
54796;DHT22;40693;43.884;20.340;2023-09-19T09:27:31;691.70;2252.80
54796;DHT22;40693;43.884;20.340;2023-09-19T09:29:59;691.70;2252.80
54796;DHT22;40693;43.884;20.340;2023-09-19T09:32:27;691.70;2252.80
54796;DHT22;40693;43.884;20.340;2023-09-19T09:34:58;691.80;2278.40
54796;DHT22;40693;43.884;20.340;2023-09-19T09:37:25;691.90;2252.80
54796;DHT22;40693;43.884;20.340;2023-09-19T09:40:00;691.90;2278.40
54796;DHT22;40693;43.884;20.340;2023-09-19T09:42:38;692.10;2278.40
54796;DHT22;40693;43.884;20.340;2023-09-19T09:45:22;716.80;2201.60
54796;DHT22;40693;43.884;20.340;2023-09-19T09:48:03;716.90;2201.60
54796;DHT22;40693;43.884;20.340;2023-09-19T09:50:33;717.00;2201.60
54796;DHT22;40693;43.884;20.340;2023-09-19T09:58:49;717.00;2227.20
54796;DHT22;40693;43.884;20.340;2023-09-19T10:01:17;717.20;2176.00
54796;DHT22;40693;43.884;20.340;2023-09-19T10:03:43;717.30;2201.60
54796;DHT22;40693;43.884;20.340;2023-09-19T10:06:15;717.30;2150.40
54796;DHT22;40693;43.884;20.340;2023-09-19T10:12:06;717.30;2124.80
54796;DHT22;40693;43.884;20.340;2023-09-19T10:14:44;717.40;2124.80
54796;DHT22;40693;43.884;20.340;2023-09-19T10:17:13;717.40;2176.00
54796;DHT22;40693;43.884;20.340;2023-09-19T10:19:45;717.40;2150.40
54796;DHT22;40693;43.884;20.340;2023-09-19T10:22:17;717.50;2124.80
54796;DHT22;40693;43.884;20.340;2023-09-19T10:24:49;717.60;2124.80
54796;DHT22;40693;43.884;20.340;2023-09-19T10:27:22;717.70;2124.80
54796;DHT22;40693;43.884;20.340;2023-09-19T10:29:51;717.70;2099.20
54796;DHT22;40693;43.884;20.340;2023-09-19T10:32:22;717.60;2073.60
54796;DHT22;40693;43.884;20.340;2023-09-19T10:34:49;717.60;2099.20
54796;DHT22;40693;43.884;20.340;2023-09-19T10:37:20;717.50;2073.60
54796;DHT22;40693;43.884;20.340;2023-09-19T10:39:48;717.60;2073.60
54796;DHT22;40693;43.884;20.340;2023-09-19T10:42:19;717.60;2099.20
54796;DHT22;40693;43.884;20.340;2023-09-19T10:44:47;717.50;2073.60
54796;DHT22;40693;43.884;20.340;2023-09-19T10:47:19;717.60;2073.60
54796;DHT22;40693;43.884;20.340;2023-09-19T10:49:46;717.60;2099.20
54796;DHT22;40693;43.884;20.340;2023-09-19T10:52:14;717.70;2073.60
54796;DHT22;40693;43.884;20.340;2023-09-19T10:54:48;717.70;2073.60
54796;DHT22;40693;43.884;20.340;2023-09-19T10:57:24;717.70;2073.60
54796;DHT22;40693;43.884;20.340;2023-09-19T11:00:04;742.40;2073.60
54796;DHT22;40693;43.884;20.340;2023-09-19T11:05:40;742.70;2073.60
54796;DHT22;40693;43.884;20.340;2023-09-19T11:08:10;742.80;2048.00
54796;DHT22;40693;43.884;20.340;2023-09-19T11:10:50;742.90;2073.60
54796;DHT22;40693;43.884;20.340;2023-09-19T11:13:30;742.90;2048.00
54796;DHT22;40693;43.884;20.340;2023-09-19T11:16:04;743.00;2048.00
54796;DHT22;40693;43.884;20.340;2023-09-19T11:27:12;743.30;2022.40
54796;DHT22;40693;43.884;20.340;2023-09-19T11:29:39;743.30;2022.40
54796;DHT22;40693;43.884;20.340;2023-09-19T11:32:05;743.30;2022.40
54796;DHT22;40693;43.884;20.340;2023-09-19T11:34:38;742.90;1996.80
54796;DHT22;40693;43.884;20.340;2023-09-19T11:39:37;768.00;2022.40
54796;DHT22;40693;43.884;20.340;2023-09-19T11:42:46;768.10;2048.00
54796;DHT22;40693;43.884;20.340;2023-09-19T11:48:23;768.50;1996.80
54796;DHT22;40693;43.884;20.340;2023-09-19T11:50:51;768.60;1945.60
54796;DHT22;40693;43.884;20.340;2023-09-19T11:53:18;768.60;1971.20
54796;DHT22;40693;43.884;20.340;2023-09-19T11:55:45;768.70;1945.60
54796;DHT22;40693;43.884;20.340;2023-09-19T11:58:20;768.90;1971.20
54796;DHT22;40693;43.884;20.340;2023-09-19T12:00:54;768.90;1945.60
54796;DHT22;40693;43.884;20.340;2023-09-19T12:03:29;793.70;1996.80
54796;DHT22;40693;43.884;20.340;2023-09-19T12:05:55;793.80;1996.80
54796;DHT22;40693;43.884;20.340;2023-09-19T12:08:23;794.10;1920.00
54796;DHT22;40693;43.884;20.340;2023-09-19T12:10:50;794.10;1894.40
54796;DHT22;40693;43.884;20.340;2023-09-19T12:13:19;794.20;1920.00
54796;DHT22;40693;43.884;20.340;2023-09-19T12:15:46;794.40;1920.00
54796;DHT22;40693;43.884;20.340;2023-09-19T12:18:30;819.20;1894.40
54796;DHT22;40693;43.884;20.340;2023-09-19T12:20:56;819.30;1868.80
54796;DHT22;40693;43.884;20.340;2023-09-19T12:23:23;819.60;1894.40
54796;DHT22;40693;43.884;20.340;2023-09-19T12:25:51;819.70;1843.20
54796;DHT22;40693;43.884;20.340;2023-09-19T12:28:18;819.90;1868.80
54796;DHT22;40693;43.884;20.340;2023-09-19T12:30:44;820.10;1868.80
54796;DHT22;40693;43.884;20.340;2023-09-19T12:33:18;844.80;1843.20
54796;DHT22;40693;43.884;20.340;2023-09-19T12:35:51;844.80;1843.20
54796;DHT22;40693;43.884;20.340;2023-09-19T12:38:27;844.90;1843.20
54796;DHT22;40693;43.884;20.340;2023-09-19T12:41:01;844.90;1792.00
54796;DHT22;40693;43.884;20.340;2023-09-19T12:43:31;844.90;1792.00
54796;DHT22;40693;43.884;20.340;2023-09-19T12:46:05;845.00;1792.00
54796;DHT22;40693;43.884;20.340;2023-09-19T12:48:31;844.90;1766.40
54796;DHT22;40693;43.884;20.340;2023-09-19T12:53:37;820.10;1740.80
54796;DHT22;40693;43.884;20.340;2023-09-19T12:56:08;820.10;1740.80
54796;DHT22;40693;43.884;20.340;2023-09-19T12:58:48;844.90;1792.00
54796;DHT22;40693;43.884;20.340;2023-09-19T13:01:15;844.90;1766.40
54796;DHT22;40693;43.884;20.340;2023-09-19T13:03:41;820.10;1715.20
54796;DHT22;40693;43.884;20.340;2023-09-19T13:06:07;820.10;1740.80
54796;DHT22;40693;43.884;20.340;2023-09-19T13:08:37;820.10;1715.20
54796;DHT22;40693;43.884;20.340;2023-09-19T13:11:11;820.10;1715.20
54796;DHT22;40693;43.884;20.340;2023-09-19T13:19:52;844.90;1740.80
54796;DHT22;40693;43.884;20.340;2023-09-19T13:22:41;845.00;1740.80
54796;DHT22;40693;43.884;20.340;2023-09-19T13:25:28;845.20;1740.80
54796;DHT22;40693;43.884;20.340;2023-09-19T13:27:56;844.90;1766.40
54796;DHT22;40693;43.884;20.340;2023-09-19T13:30:24;845.10;1740.80
54796;DHT22;40693;43.884;20.340;2023-09-19T13:32:51;845.20;1740.80
54796;DHT22;40693;43.884;20.340;2023-09-19T13:35:18;845.10;1740.80
54796;DHT22;40693;43.884;20.340;2023-09-19T13:37:46;819.90;1766.40
54796;DHT22;40693;43.884;20.340;2023-09-19T13:40:15;819.60;1792.00
54796;DHT22;40693;43.884;20.340;2023-09-19T13:42:41;819.30;1817.60
54796;DHT22;40693;43.884;20.340;2023-09-19T13:45:08;794.10;1817.60
54796;DHT22;40693;43.884;20.340;2023-09-19T13:47:38;793.60;1920.00
54796;DHT22;40693;43.884;20.340;2023-09-19T13:50:05;768.50;1996.80
54796;DHT22;40693;43.884;20.340;2023-09-19T13:52:31;768.10;2073.60
54796;DHT22;40693;43.884;20.340;2023-09-19T13:54:58;743.30;2124.80
54796;DHT22;40693;43.884;20.340;2023-09-19T13:57:24;742.80;2176.00
54796;DHT22;40693;43.884;20.340;2023-09-19T13:59:51;717.50;2176.00
54796;DHT22;40693;43.884;20.340;2023-09-19T14:02:17;717.00;2329.60
54796;DHT22;40693;43.884;20.340;2023-09-19T14:04:44;691.90;2406.40
54796;DHT22;40693;43.884;20.340;2023-09-19T14:07:10;691.20;2432.00
54796;DHT22;40693;43.884;20.340;2023-09-19T14:09:36;691.20;2432.00
54796;DHT22;40693;43.884;20.340;2023-09-19T14:12:03;691.30;2432.00
54796;DHT22;40693;43.884;20.340;2023-09-19T14:14:28;691.40;2432.00
54796;DHT22;40693;43.884;20.340;2023-09-19T14:16:54;691.40;2432.00
54796;DHT22;40693;43.884;20.340;2023-09-19T14:19:20;691.60;2432.00
54796;DHT22;40693;43.884;20.340;2023-09-19T14:21:46;691.60;2432.00
54796;DHT22;40693;43.884;20.340;2023-09-19T14:24:19;691.60;2432.00
54796;DHT22;40693;43.884;20.340;2023-09-19T14:26:45;691.40;2432.00
54796;DHT22;40693;43.884;20.340;2023-09-19T14:29:11;691.40;2432.00
54796;DHT22;40693;43.884;20.340;2023-09-19T14:31:38;691.40;2432.00
54796;DHT22;40693;43.884;20.340;2023-09-19T14:34:06;691.30;2432.00
54796;DHT22;40693;43.884;20.340;2023-09-19T14:36:31;691.20;2432.00
54796;DHT22;40693;43.884;20.340;2023-09-19T14:38:59;666.40;2432.00
54796;DHT22;40693;43.884;20.340;2023-09-19T14:41:24;666.20;2432.00
54796;DHT22;40693;43.884;20.340;2023-09-19T14:43:54;665.90;2432.00
54796;DHT22;40693;43.884;20.340;2023-09-19T14:46:23;665.80;2432.00
54796;DHT22;40693;43.884;20.340;2023-09-19T14:48:52;665.70;2432.00
54796;DHT22;40693;43.884;20.340;2023-09-19T14:51:19;665.80;2432.00
54796;DHT22;40693;43.884;20.340;2023-09-19T14:53:45;665.80;2432.00
54796;DHT22;40693;43.884;20.340;2023-09-19T14:56:14;665.70;2432.00
54796;DHT22;40693;43.884;20.340;2023-09-19T14:58:44;665.70;2432.00
54796;DHT22;40693;43.884;20.340;2023-09-19T15:01:11;665.70;2432.00
54796;DHT22;40693;43.884;20.340;2023-09-19T15:03:38;640.90;2432.00
54796;DHT22;40693;43.884;20.340;2023-09-19T15:06:07;640.90;2432.00
54796;DHT22;40693;43.884;20.340;2023-09-19T15:08:36;640.80;2432.00
54796;DHT22;40693;43.884;20.340;2023-09-19T15:11:12;640.80;2432.00
54796;DHT22;40693;43.884;20.340;2023-09-19T15:13:39;640.80;2432.00
54796;DHT22;40693;43.884;20.340;2023-09-19T15:16:08;640.80;2432.00
54796;DHT22;40693;43.884;20.340;2023-09-19T15:18:37;640.90;2432.00
54796;DHT22;40693;43.884;20.340;2023-09-19T15:21:04;640.80;2432.00
54796;DHT22;40693;43.884;20.340;2023-09-19T15:23:33;640.70;2432.00
54796;DHT22;40693;43.884;20.340;2023-09-19T15:26:11;640.50;2432.00
54796;DHT22;40693;43.884;20.340;2023-09-19T15:28:37;640.30;2432.00
54796;DHT22;40693;43.884;20.340;2023-09-19T15:31:08;640.10;2432.00
54796;DHT22;40693;43.884;20.340;2023-09-19T15:33:35;640.10;2432.00
54796;DHT22;40693;43.884;20.340;2023-09-19T15:36:09;615.30;2432.00
54796;DHT22;40693;43.884;20.340;2023-09-19T15:41:29;615.10;2432.00
54796;DHT22;40693;43.884;20.340;2023-09-19T15:43:56;615.00;2432.00
54796;DHT22;40693;43.884;20.340;2023-09-19T15:46:23;615.10;2432.00
54796;DHT22;40693;43.884;20.340;2023-09-19T15:48:48;615.20;2432.00